Time;durP1;ratioP1;P1;durP2;ratioP2;P2;SDS_P1;SDS_P2;PMS_P1;PMS_P2;Temp;Humidity;BMP_temperature;BMP_pressure;BME280_temperature;BME280_humidity;BME280_pressure;Samples;Min_cycle;Max_cycle;Signal;HPM_P1;HPM_P2
2023/01/29 00:02:07;;;;;;;14.80;9.23;;;2.80;84.80;;;;;;5034904;28;20124;-58
2023/01/29 00:04:33;;;;;;;11.75;8.57;;;2.90;84.90;;;;;;5034731;28;20041;-59
2023/01/29 00:06:59;;;;;;;12.80;8.77;;;2.90;84.80;;;;;;5034381;28;20037;-58
2023/01/29 00:09:24;;;;;;;13.65;9.02;;;2.90;84.70;;;;;;5033626;28;20112;-59
2023/01/29 00:11:50;;;;;;;13.65;8.77;;;2.90;84.70;;;;;;5029177;28;20064;-59
2023/01/29 00:14:15;;;;;;;13.68;9.00;;;2.90;84.70;;;;;;5034225;28;20041;-60
2023/01/29 00:16:41;;;;;;;12.40;9.00;;;2.90;84.60;;;;;;5033616;28;20099;-61
2023/01/29 00:19:07;;;;;;;12.43;8.75;;;2.90;84.50;;;;;;5034033;28;20040;-61
2023/01/29 00:21:32;;;;;;;12.27;8.85;;;2.90;84.50;;;;;;5034621;28;20068;-58
2023/01/29 00:23:59;;;;;;;14.60;9.38;;;2.90;84.50;;;;;;5033836;28;20037;-59
2023/01/29 00:26:25;;;;;;;12.90;9.13;;;2.90;84.50;;;;;;5034839;28;20037;-60
2023/01/29 00:28:51;;;;;;;12.35;8.85;;;2.90;84.50;;;;;;5033307;28;20405;-59
2023/01/29 00:31:19;;;;;;;14.13;9.20;;;2.90;84.50;;;;;;5034331;28;20116;-60
2023/01/29 00:33:45;;;;;;;12.90;9.00;;;2.90;84.50;;;;;;5033655;28;20037;-61
2023/01/29 00:36:13;;;;;;;13.18;9.30;;;2.90;84.50;;;;;;5034142;28;20037;-59
2023/01/29 00:38:38;;;;;;;12.55;8.68;;;2.90;84.40;;;;;;5033044;28;20056;-61
2023/01/29 00:46:45;;;;;;;13.38;8.35;;;2.90;84.20;;;;;;5032568;28;20366;-60
2023/01/29 00:49:10;;;;;;;12.27;8.30;;;2.90;84.20;;;;;;5034778;28;20607;-60
2023/01/29 00:51:38;;;;;;;12.20;8.25;;;2.90;84.20;;;;;;5034871;28;20021;-61
2023/01/29 00:54:05;;;;;;;12.73;8.52;;;2.90;84.30;;;;;;5035263;28;20089;-59
2023/01/29 00:56:32;;;;;;;12.50;8.52;;;2.90;84.30;;;;;;5034009;28;20404;-60
2023/01/29 00:58:58;;;;;;;11.68;8.10;;;2.80;84.00;;;;;;5033495;28;20252;-59
2023/01/29 01:04:09;;;;;;;10.33;7.53;;;2.90;84.10;;;;;;5037217;28;20535;-58
2023/01/29 01:06:40;;;;;;;13.68;8.25;;;2.80;84.00;;;;;;5037614;28;20275;-57
2023/01/29 01:11:51;;;;;;;;;;;2.80;84.00;;;;;;5033741;28;20063;-60
2023/01/29 01:14:17;;;;;;;10.70;7.20;;;2.80;84.00;;;;;;5035979;28;19944;-60
2023/01/29 01:16:45;;;;;;;9.88;7.07;;;2.80;84.00;;;;;;5036213;28;20124;-61
2023/01/29 01:19:11;;;;;;;10.35;7.47;;;2.80;84.00;;;;;;5036677;28;20044;-60
2023/01/29 01:21:37;;;;;;;10.60;7.43;;;2.80;84.00;;;;;;5037507;28;20322;-57
2023/01/29 01:24:04;;;;;;;10.95;7.78;;;2.80;83.90;;;;;;5037327;28;20507;-60
2023/01/29 01:26:33;;;;;;;10.85;8.00;;;2.80;84.00;;;;;;5036886;28;20029;-59
2023/01/29 01:28:59;;;;;;;12.90;8.55;;;2.80;83.90;;;;;;5037766;28;20079;-60
2023/01/29 01:31:25;;;;;;;13.02;9.40;;;2.80;84.00;;;;;;5037402;28;20041;-59
2023/01/29 01:33:53;;;;;;;12.93;8.77;;;2.80;83.90;;;;;;5036504;28;20061;-57
2023/01/29 01:36:18;;;;;;;12.27;8.95;;;2.90;83.90;;;;;;5034991;28;20663;-59
2023/01/29 01:38:44;;;;;;;12.27;8.70;;;2.80;83.80;;;;;;5035782;28;20120;-58
2023/01/29 01:41:11;;;;;;;11.80;8.05;;;2.80;83.70;;;;;;5035775;28;20698;-59
2023/01/29 01:43:59;;;;;;;11.13;8.00;;;2.80;83.70;;;;;;5035705;28;20041;-59
2023/01/29 01:46:28;;;;;;;10.55;7.45;;;2.80;83.40;;;;;;5034893;28;20045;-57
2023/01/29 01:49:10;;;;;;;9.55;7.10;;;2.80;83.50;;;;;;5036669;28;20385;-59
2023/01/29 01:51:41;;;;;;;9.95;7.43;;;2.80;83.30;;;;;;5036450;28;20040;-60
2023/01/29 01:54:11;;;;;;;11.90;7.18;;;2.80;83.20;;;;;;5036262;28;20048;-61
2023/01/29 01:56:42;;;;;;;8.50;6.18;;;2.80;83.20;;;;;;5036326;28;20467;-60
2023/01/29 01:59:10;;;;;;;9.73;7.20;;;2.80;83.10;;;;;;5036031;28;20041;-61
2023/01/29 02:01:39;;;;;;;9.77;7.30;;;2.80;83.20;;;;;;5029569;28;20037;-61
2023/01/29 02:09:47;;;;;;;11.55;7.88;;;2.70;83.20;;;;;;5032865;28;20515;-61
2023/01/29 02:12:14;;;;;;;11.02;7.43;;;2.70;83.20;;;;;;5022711;28;20100;-60
2023/01/29 02:14:41;;;;;;;12.18;8.27;;;2.70;83.20;;;;;;5032987;28;20057;-60
2023/01/29 02:17:15;;;;;;;13.15;7.82;;;2.70;83.10;;;;;;5036204;28;20037;-61
2023/01/29 02:19:50;;;;;;;11.38;7.60;;;2.70;83.90;;;;;;5034105;28;20038;-60
2023/01/29 02:22:37;;;;;;;10.32;7.70;;;2.70;83.00;;;;;;5025822;28;20036;-59
2023/01/29 02:25:10;;;;;;;10.95;8.15;;;2.70;82.80;;;;;;5027046;28;20041;-61
2023/01/29 02:27:48;;;;;;;10.32;7.40;;;2.70;83.00;;;;;;5032351;28;20037;-60
2023/01/29 02:30:32;;;;;;;10.43;7.70;;;2.70;82.70;;;;;;5030141;28;20049;-61
2023/01/29 02:33:20;;;;;;;11.38;8.10;;;2.70;82.60;;;;;;5034098;28;20043;-60
2023/01/29 02:35:56;;;;;;;11.25;7.97;;;2.60;82.60;;;;;;5034336;28;20034;-59
2023/01/29 02:38:58;;;;;;;11.10;7.90;;;2.60;82.70;;;;;;5035039;28;20033;-60
2023/01/29 02:41:33;;;;;;;11.55;7.65;;;2.60;82.70;;;;;;5036033;28;20040;-61
2023/01/29 02:44:08;;;;;;;11.32;7.57;;;2.50;82.80;;;;;;5035324;28;20032;-59
2023/01/29 02:46:54;;;;;;;12.05;7.68;;;2.50;82.80;;;;;;5034948;28;20395;-58
2023/01/29 02:49:53;;;;;;;10.15;7.43;;;2.50;82.80;;;;;;5034093;28;20033;-59
2023/01/29 02:52:24;;;;;;;11.30;7.70;;;2.50;83.00;;;;;;5013901;28;20540;-61
2023/01/29 02:55:01;;;;;;;11.27;7.75;;;2.50;83.10;;;;;;5031371;28;20100;-61
2023/01/29 02:57:32;;;;;;;12.52;8.43;;;2.50;83.20;;;;;;5027123;28;20082;-60
2023/01/29 03:00:06;;;;;;;12.07;7.95;;;2.50;83.20;;;;;;5029021;28;20404;-58
2023/01/29 03:02:56;;;;;;;11.82;8.07;;;2.50;83.10;;;;;;5028476;28;20076;-58
2023/01/29 03:05:43;;;;;;;14.20;8.68;;;2.50;83.00;;;;;;5032444;28;20076;-57
2023/01/29 03:08:14;;;;;;;12.25;8.18;;;2.50;82.80;;;;;;5025811;28;20386;-57
2023/01/29 03:10:50;;;;;;;10.02;7.43;;;2.50;82.80;;;;;;5018884;28;20112;-60
2023/01/29 03:13:36;;;;;;;12.75;7.53;;;2.50;82.80;;;;;;5027552;28;20040;-59
2023/01/29 03:16:10;;;;;;;11.52;7.18;;;2.50;82.60;;;;;;5023915;28;20029;-60
2023/01/29 03:18:53;;;;;;;12.60;7.53;;;2.50;82.60;;;;;;5028068;28;20515;-59
2023/01/29 03:32:37;;;;;;;11.18;7.55;;;2.40;82.60;;;;;;5030120;28;20111;-58
2023/01/29 03:35:06;;;;;;;10.60;7.70;;;2.40;82.70;;;;;;5030691;28;20041;-61
2023/01/29 03:37:44;;;;;;;10.55;7.38;;;2.40;82.70;;;;;;5024448;28;20556;-59
2023/01/29 03:40:10;;;;;;;10.02;7.40;;;2.40;82.60;;;;;;5027560;28;20057;-60
2023/01/29 03:42:42;;;;;;;14.85;8.05;;;2.40;82.80;;;;;;5029571;28;20163;-58
2023/01/29 03:45:29;;;;;;;10.63;7.63;;;2.40;82.60;;;;;;5029523;28;20141;-61
2023/01/29 03:48:11;;;;;;;11.80;7.97;;;2.40;82.60;;;;;;5022980;28;20370;-60
2023/01/29 03:50:55;;;;;;;12.50;7.78;;;2.40;82.40;;;;;;5031156;28;20033;-61
2023/01/29 03:53:39;;;;;;;10.25;7.30;;;2.30;82.30;;;;;;5026118;28;20333;-59
2023/01/29 03:56:40;;;;;;;10.02;7.35;;;2.30;82.60;;;;;;5027921;28;20057;-60
2023/01/29 03:59:22;;;;;;;11.23;7.50;;;2.30;82.70;;;;;;5019112;28;20516;-59
2023/01/29 04:01:56;;;;;;;12.27;8.05;;;2.30;82.50;;;;;;5027086;28;20033;-60
2023/01/29 04:04:29;;;;;;;11.43;8.27;;;2.30;82.60;;;;;;5028700;28;20125;-61
2023/01/29 04:07:00;;;;;;;11.43;7.65;;;2.30;82.60;;;;;;5026385;28;20030;-59
2023/01/29 04:09:42;;;;;;;12.32;8.07;;;2.20;82.70;;;;;;5026354;28;20476;-60
2023/01/29 04:12:10;;;;;;;11.43;7.63;;;2.20;82.70;;;;;;5021714;28;20584;-61
2023/01/29 04:14:37;;;;;;;11.57;7.90;;;2.20;82.80;;;;;;5029741;28;20433;-61
2023/01/29 04:17:16;;;;;;;12.05;8.00;;;2.30;83.00;;;;;;5027364;28;20030;-60
2023/01/29 04:19:43;;;;;;;14.05;8.35;;;2.30;83.00;;;;;;5029960;28;20041;-62
2023/01/29 04:22:23;;;;;;;11.88;8.35;;;2.30;83.00;;;;;;5027877;28;20061;-60
2023/01/29 04:24:50;;;;;;;10.85;7.57;;;2.30;82.90;;;;;;5026832;28;20045;-61
2023/01/29 04:27:57;;;;;;;11.88;8.18;;;2.30;83.00;;;;;;5028416;28;20045;-61
2023/01/29 04:30:37;;;;;;;11.73;7.90;;;2.30;82.90;;;;;;5030551;28;20037;-62
2023/01/29 04:33:28;;;;;;;11.35;7.70;;;2.30;82.90;;;;;;5031708;28;20041;-61
2023/01/29 04:36:12;;;;;;;11.68;8.43;;;2.30;82.90;;;;;;5032464;28;20443;-60
2023/01/29 04:39:20;;;;;;;13.30;7.78;;;2.30;82.80;;;;;;5031069;28;20041;-60
2023/01/29 04:41:51;;;;;;;13.00;8.68;;;2.30;82.80;;;;;;5027519;28;20140;-60
2023/01/29 04:44:20;;;;;;;11.68;8.05;;;2.30;82.90;;;;;;5032045;28;20037;-60
2023/01/29 04:46:49;;;;;;;12.48;8.23;;;2.30;83.00;;;;;;5030886;28;20064;-59
2023/01/29 04:49:28;;;;;;;11.38;7.78;;;2.30;83.00;;;;;;5032789;28;20520;-59
2023/01/29 04:52:13;;;;;;;14.40;8.82;;;2.30;83.20;;;;;;5032441;28;20386;-60
2023/01/29 04:54:47;;;;;;;11.38;7.97;;;2.30;83.10;;;;;;5034908;28;20041;-59
2023/01/29 04:57:27;;;;;;;13.60;8.73;;;2.30;83.20;;;;;;5031819;28;20037;-61
2023/01/29 05:00:03;;;;;;;12.85;8.73;;;2.30;83.00;;;;;;5032680;28;20038;-60
2023/01/29 05:02:32;;;;;;;15.48;8.43;;;2.30;82.80;;;;;;5031669;28;20348;-60
2023/01/29 05:04:58;;;;;;;11.98;7.90;;;2.30;82.90;;;;;;5034873;28;20083;-59
2023/01/29 05:07:27;;;;;;;11.85;8.70;;;2.30;83.00;;;;;;5031211;28;20048;-60
2023/01/29 05:09:54;;;;;;;16.75;9.35;;;2.30;83.20;;;;;;5031707;28;20071;-60
2023/01/29 05:12:22;;;;;;;11.73;8.35;;;2.30;83.20;;;;;;5023510;28;20401;-59
2023/01/29 05:14:50;;;;;;;12.02;8.20;;;2.30;83.30;;;;;;5027080;28;20048;-58
2023/01/29 05:17:18;;;;;;;12.05;8.77;;;2.30;83.20;;;;;;5032014;28;20597;-60
2023/01/29 05:19:45;;;;;;;13.95;8.65;;;2.40;83.20;;;;;;5033340;28;20420;-59
2023/01/29 05:22:14;;;;;;;15.50;8.68;;;2.40;83.20;;;;;;5024481;28;20036;-61
2023/01/29 05:24:40;;;;;;;13.02;8.48;;;2.40;83.00;;;;;;5033035;28;20025;-59
2023/01/29 05:29:50;;;;;;;11.25;8.05;;;2.30;82.90;;;;;;5029094;28;20539;-60
2023/01/29 05:32:15;;;;;;;10.52;7.80;;;2.30;83.00;;;;;;5033217;28;20072;-59
2023/01/29 05:34:41;;;;;;;12.75;8.07;;;2.30;83.10;;;;;;5035212;28;20516;-59
2023/01/29 05:37:09;;;;;;;12.30;8.05;;;2.30;83.20;;;;;;5034575;28;20037;-59
2023/01/29 05:39:34;;;;;;;11.60;8.30;;;2.30;83.20;;;;;;5029118;28;20040;-59
2023/01/29 05:42:00;;;;;;;11.98;8.13;;;2.30;83.30;;;;;;5030477;28;20043;-61
2023/01/29 05:44:26;;;;;;;12.27;8.20;;;2.30;83.30;;;;;;5031768;28;20041;-58
2023/01/29 05:46:52;;;;;;;13.48;8.38;;;2.30;83.30;;;;;;5027254;28;20064;-58
2023/01/29 05:49:19;;;;;;;13.05;8.52;;;2.30;84.20;;;;;;5030829;28;20040;-58
2023/01/29 05:51:45;;;;;;;12.95;8.05;;;2.40;83.30;;;;;;5033614;28;20408;-60
2023/01/29 05:54:11;;;;;;;11.20;7.78;;;2.40;83.20;;;;;;5032626;28;20041;-60
2023/01/29 05:56:38;;;;;;;12.35;8.65;;;2.40;83.10;;;;;;5030582;28;20132;-59
2023/01/29 05:59:04;;;;;;;13.63;8.20;;;2.40;83.00;;;;;;5029963;28;20556;-61
2023/01/29 06:01:29;;;;;;;13.93;8.63;;;2.40;83.00;;;;;;5033376;28;20124;-61
2023/01/29 06:03:55;;;;;;;13.55;8.52;;;2.40;83.00;;;;;;5033160;28;20532;-61
2023/01/29 06:06:20;;;;;;;13.07;8.02;;;2.40;82.80;;;;;;5030766;28;20179;-60
2023/01/29 06:08:46;;;;;;;14.50;8.80;;;2.40;82.70;;;;;;5028247;28;20036;-60
2023/01/29 06:11:13;;;;;;;11.35;7.60;;;2.40;82.60;;;;;;5026837;28;20045;-58
2023/01/29 06:13:39;;;;;;;11.07;7.30;;;2.40;82.30;;;;;;5028520;28;20575;-61
2023/01/29 06:16:09;;;;;;;10.60;7.70;;;2.40;82.20;;;;;;5028252;28;21236;-59
2023/01/29 06:18:38;;;;;;;13.30;8.63;;;2.40;82.20;;;;;;5032518;28;20037;-60
2023/01/29 06:21:05;;;;;;;14.48;8.50;;;2.40;82.10;;;;;;5032975;28;20091;-60
2023/01/29 06:23:31;;;;;;;13.60;9.25;;;2.40;82.10;;;;;;5031632;28;20038;-59
2023/01/29 06:26:11;;;;;;;13.00;8.68;;;2.40;82.10;;;;;;5030671;28;20037;-58
2023/01/29 06:28:37;;;;;;;13.02;8.55;;;2.40;82.00;;;;;;5027987;28;20037;-59
2023/01/29 06:31:05;;;;;;;11.18;7.85;;;2.40;82.00;;;;;;5033343;28;20338;-59
2023/01/29 06:33:31;;;;;;;13.07;9.13;;;2.40;81.80;;;;;;5036357;28;20044;-58
2023/01/29 06:35:57;;;;;;;11.57;7.85;;;2.30;81.60;;;;;;5032823;28;20489;-58
2023/01/29 06:38:23;;;;;;;13.05;8.55;;;2.30;81.60;;;;;;5031323;28;20120;-59
2023/01/29 06:40:49;;;;;;;13.02;8.60;;;2.30;81.60;;;;;;5030515;28;20091;-59
2023/01/29 06:43:15;;;;;;;13.02;8.73;;;2.30;81.70;;;;;;5025383;28;20057;-58
2023/01/29 06:45:52;;;;;;;13.30;8.70;;;2.30;81.70;;;;;;5028786;28;20465;-59
2023/01/29 06:48:18;;;;;;;12.95;8.85;;;2.20;81.60;;;;;;5032164;28;20501;-58
2023/01/29 06:50:44;;;;;;;11.70;8.27;;;2.20;81.80;;;;;;5030754;28;20041;-59
2023/01/29 06:53:10;;;;;;;12.05;7.88;;;2.20;82.00;;;;;;5026491;28;20029;-60
2023/01/29 06:55:36;;;;;;;12.90;8.60;;;2.20;82.00;;;;;;5027724;28;20060;-59
2023/01/29 06:58:09;;;;;;;16.05;10.18;;;2.10;82.10;;;;;;5021816;28;20635;-59
2023/01/29 07:00:35;;;;;;;15.48;9.57;;;2.10;82.10;;;;;;5024462;28;21066;-57
2023/01/29 07:03:02;;;;;;;13.43;9.43;;;2.10;82.00;;;;;;5031351;28;20064;-59
2023/01/29 07:05:28;;;;;;;15.82;9.75;;;2.10;82.00;;;;;;5023060;28;20033;-58
2023/01/29 07:07:53;;;;;;;17.48;10.23;;;2.10;81.90;;;;;;5028793;28;20044;-59
2023/01/29 07:10:19;;;;;;;14.32;8.93;;;2.10;82.00;;;;;;5026696;28;20036;-60
2023/01/29 07:12:45;;;;;;;14.13;9.27;;;2.10;82.10;;;;;;5021363;28;20033;-59
2023/01/29 07:15:13;;;;;;;13.75;9.13;;;2.00;82.10;;;;;;5033915;28;20030;-59
2023/01/29 07:17:39;;;;;;;12.43;9.07;;;2.00;82.10;;;;;;5030009;28;20048;-57
2023/01/29 07:20:06;;;;;;;13.65;9.10;;;2.00;82.20;;;;;;5034482;28;20033;-60
2023/01/29 07:22:32;;;;;;;14.10;9.55;;;2.00;82.20;;;;;;5032609;28;20036;-60
2023/01/29 07:24:57;;;;;;;13.35;8.25;;;2.00;82.30;;;;;;5024515;28;20055;-56
2023/01/29 07:27:23;;;;;;;13.68;8.82;;;2.00;82.10;;;;;;5029399;28;20039;-59
2023/01/29 07:29:49;;;;;;;14.93;9.48;;;2.00;82.10;;;;;;5028922;28;20048;-58
2023/01/29 07:32:14;;;;;;;17.58;9.90;;;2.00;82.10;;;;;;5023974;28;20076;-59
2023/01/29 07:34:40;;;;;;;14.50;9.27;;;2.00;82.10;;;;;;5030327;28;20432;-59
2023/01/29 07:37:06;;;;;;;14.30;9.27;;;2.00;82.20;;;;;;5024522;28;20091;-58
2023/01/29 07:39:31;;;;;;;12.23;8.52;;;2.00;82.30;;;;;;5031863;28;20047;-59
2023/01/29 07:41:57;;;;;;;13.55;9.07;;;2.00;82.30;;;;;;5030974;28;20030;-59
2023/01/29 07:44:23;;;;;;;14.55;9.38;;;2.10;82.30;;;;;;5028409;28;20443;-59
2023/01/29 07:46:48;;;;;;;15.70;10.02;;;2.10;82.20;;;;;;5022139;28;20422;-59
2023/01/29 07:49:15;;;;;;;18.52;11.15;;;2.10;82.30;;;;;;5028175;28;20040;-57
2023/01/29 07:51:40;;;;;;;19.98;12.25;;;2.10;82.20;;;;;;5029678;28;20114;-60
2023/01/29 07:54:06;;;;;;;19.65;12.38;;;2.10;82.30;;;;;;5027358;28;20128;-60
2023/01/29 07:56:31;;;;;;;21.25;13.93;;;2.10;82.30;;;;;;5027952;28;20044;-59
2023/01/29 07:58:57;;;;;;;17.13;11.35;;;2.10;82.30;;;;;;5032937;28;20025;-59
2023/01/29 08:01:22;;;;;;;14.85;10.18;;;2.10;82.20;;;;;;5021888;28;20045;-60
2023/01/29 08:03:48;;;;;;;14.18;9.82;;;2.20;82.10;;;;;;5030647;28;20041;-59
2023/01/29 08:06:14;;;;;;;14.05;9.63;;;2.20;82.00;;;;;;5033289;28;20083;-60
2023/01/29 08:08:39;;;;;;;15.32;10.23;;;2.10;82.10;;;;;;5034730;28;20032;-60
2023/01/29 08:11:05;;;;;;;13.77;9.05;;;2.20;82.10;;;;;;5027440;28;20041;-60
2023/01/29 08:13:31;;;;;;;12.27;8.15;;;2.20;82.10;;;;;;5035187;28;20440;-59
2023/01/29 08:16:01;;;;;;;12.73;8.32;;;2.20;81.90;;;;;;5038129;28;20042;-60
2023/01/29 08:18:27;;;;;;;10.85;7.22;;;2.20;81.80;;;;;;5037983;28;20581;-60
2023/01/29 08:20:58;;;;;;;11.18;7.43;;;2.20;81.80;;;;;;5036108;28;20405;-60
2023/01/29 08:23:24;;;;;;;14.00;8.80;;;2.30;81.70;;;;;;5031026;28;20047;-58
2023/01/29 08:25:49;;;;;;;12.32;8.13;;;2.30;81.80;;;;;;5017716;28;20222;-61
2023/01/29 08:28:15;;;;;;;11.50;8.02;;;2.30;81.30;;;;;;5024050;28;20057;-59
2023/01/29 08:30:40;;;;;;;13.98;9.18;;;2.30;81.20;;;;;;5016829;28;20064;-57
2023/01/29 08:33:06;;;;;;;12.38;8.48;;;2.30;81.10;;;;;;5026425;28;20029;-58
2023/01/29 08:35:32;;;;;;;11.40;7.25;;;2.30;80.90;;;;;;5024240;28;20431;-59
2023/01/29 08:37:59;;;;;;;10.82;7.45;;;2.30;80.80;;;;;;5024902;28;20056;-61
2023/01/29 08:40:27;;;;;;;10.88;6.93;;;2.30;80.50;;;;;;5020098;28;20408;-60
2023/01/29 08:43:00;;;;;;;11.23;7.30;;;2.30;80.50;;;;;;5022664;28;20107;-59
2023/01/29 08:45:26;;;;;;;10.45;7.45;;;2.20;80.30;;;;;;5022490;28;20257;-60
2023/01/29 08:47:52;;;;;;;10.95;7.63;;;2.20;80.40;;;;;;5029736;28;20033;-60
2023/01/29 08:50:17;;;;;;;10.43;7.35;;;2.20;80.40;;;;;;5029745;28;20465;-59
2023/01/29 08:52:44;;;;;;;12.00;7.93;;;2.20;81.60;;;;;;5027967;28;20117;-59
2023/01/29 08:55:10;;;;;;;10.93;7.50;;;2.20;81.00;;;;;;5021772;28;20168;-60
2023/01/29 08:57:37;;;;;;;10.32;6.88;;;2.40;81.10;;;;;;5024212;28;20041;-61
2023/01/29 09:00:04;;;;;;;10.10;6.57;;;2.30;81.00;;;;;;5028514;28;20045;-61
2023/01/29 09:02:29;;;;;;;10.07;6.43;;;2.30;81.00;;;;;;5027435;28;20477;-60
2023/01/29 09:04:55;;;;;;;10.63;6.95;;;2.30;81.00;;;;;;5028575;28;20033;-59
2023/01/29 09:07:20;;;;;;;12.02;7.82;;;2.40;80.90;;;;;;5025810;28;20152;-59
2023/01/29 09:09:46;;;;;;;11.75;7.63;;;2.40;80.60;;;;;;5025658;28;20037;-60
2023/01/29 09:12:12;;;;;;;13.63;8.95;;;2.40;80.60;;;;;;5022230;28;20045;-59
2023/01/29 09:14:37;;;;;;;13.70;9.38;;;2.50;80.60;;;;;;5026000;28;20481;-58
2023/01/29 09:17:03;;;;;;;13.85;9.38;;;2.50;80.60;;;;;;5011260;28;20491;-58
2023/01/29 09:19:29;;;;;;;13.63;9.65;;;2.50;80.30;;;;;;5022846;28;20045;-60
2023/01/29 09:21:54;;;;;;;14.32;9.57;;;2.50;80.10;;;;;;5029695;28;20030;-58
2023/01/29 09:24:20;;;;;;;12.07;8.38;;;2.50;80.30;;;;;;5028780;28;20067;-57
2023/01/29 09:26:45;;;;;;;12.30;8.52;;;2.50;80.30;;;;;;5024290;28;20477;-60
2023/01/29 09:29:11;;;;;;;13.23;8.40;;;2.50;80.20;;;;;;5023707;28;20029;-57
2023/01/29 09:31:36;;;;;;;10.02;7.47;;;2.50;80.40;;;;;;5027117;28;20029;-58
2023/01/29 09:34:02;;;;;;;10.20;6.97;;;2.50;80.60;;;;;;5029870;28;21697;-57
2023/01/29 09:36:28;;;;;;;11.95;8.30;;;2.50;80.60;;;;;;5020062;28;20044;-58
2023/01/29 09:38:53;;;;;;;9.98;7.00;;;2.50;80.30;;;;;;5024076;28;20032;-59
2023/01/29 09:41:42;;;;;;;11.65;7.93;;;2.50;79.80;;;;;;5025767;28;20029;-61
2023/01/29 09:44:17;;;;;;;13.98;9.10;;;2.50;79.30;;;;;;5019241;28;20025;-58
2023/01/29 09:46:46;;;;;;;10.65;7.57;;;2.60;79.80;;;;;;5023073;28;20033;-60
2023/01/29 09:49:19;;;;;;;11.38;7.60;;;2.60;79.90;;;;;;5029236;28;20029;-60
2023/01/29 09:51:50;;;;;;;10.40;7.45;;;2.50;79.50;;;;;;5021886;28;20048;-59
2023/01/29 09:54:23;;;;;;;13.57;8.63;;;2.50;79.30;;;;;;5023182;28;20457;-61
2023/01/29 09:56:52;;;;;;;14.98;8.95;;;2.60;78.70;;;;;;5022389;28;20029;-60
2023/01/29 09:59:22;;;;;;;11.80;7.65;;;2.50;78.60;;;;;;5025461;28;20112;-60
2023/01/29 10:02:18;;;;;;;15.80;9.45;;;2.50;78.80;;;;;;5031743;28;20040;-60
2023/01/29 10:05:31;;;;;;;12.15;8.38;;;2.50;78.60;;;;;;5032479;28;20128;-60
2023/01/29 10:07:56;;;;;;;11.70;8.13;;;2.40;78.60;;;;;;5011928;28;20034;-59
2023/01/29 10:10:25;;;;;;;11.38;7.72;;;2.40;79.00;;;;;;5026284;28;20235;-58
2023/01/29 10:12:58;;;;;;;12.70;8.23;;;2.40;79.00;;;;;;5025367;28;20080;-59
2023/01/29 10:15:51;;;;;;;12.38;9.02;;;2.30;79.20;;;;;;5020201;28;20562;-58
2023/01/29 10:18:39;;;;;;;13.32;9.18;;;2.30;79.50;;;;;;5024436;28;20047;-61
2023/01/29 10:21:25;;;;;;;12.75;8.55;;;2.30;79.90;;;;;;5020781;28;20440;-59
2023/01/29 10:24:02;;;;;;;12.75;8.90;;;2.40;79.90;;;;;;5022661;28;20041;-59
2023/01/29 10:26:28;;;;;;;12.88;8.77;;;2.40;79.70;;;;;;5026071;28;20111;-61
2023/01/29 10:28:56;;;;;;;13.23;9.02;;;2.40;79.30;;;;;;5024821;28;22728;-58
2023/01/29 10:31:26;;;;;;;12.70;8.60;;;2.40;79.00;;;;;;5019880;28;20068;-59
2023/01/29 10:33:56;;;;;;;14.02;8.85;;;2.40;79.10;;;;;;5026842;28;20106;-59
2023/01/29 10:36:31;;;;;;;12.20;8.77;;;2.40;79.00;;;;;;5023133;28;20052;-61
2023/01/29 10:38:56;;;;;;;;;;;2.40;78.70;;;;;;5028287;28;20389;-57
2023/01/29 10:41:52;;;;;;;13.82;9.30;;;2.40;78.10;;;;;;5027666;28;19917;-59
2023/01/29 10:44:36;;;;;;;13.90;9.15;;;2.30;78.80;;;;;;5023726;28;20052;-59
2023/01/29 10:47:09;;;;;;;16.73;9.52;;;2.30;79.00;;;;;;5023944;28;20029;-58
2023/01/29 10:49:50;;;;;;;14.23;9.07;;;2.30;79.30;;;;;;5028999;28;20147;-59
2023/01/29 10:52:43;;;;;;;14.45;8.85;;;2.30;79.20;;;;;;5028402;28;20033;-60
2023/01/29 10:55:24;;;;;;;13.85;8.93;;;2.30;79.50;;;;;;5022265;28;20029;-60
2023/01/29 10:57:56;;;;;;;14.70;8.95;;;2.40;79.90;;;;;;5021141;28;20056;-59
2023/01/29 11:00:42;;;;;;;11.85;8.63;;;2.40;79.80;;;;;;5025351;28;20033;-60
2023/01/29 11:03:31;;;;;;;14.50;9.05;;;2.50;79.70;;;;;;5028311;28;20523;-61
2023/01/29 11:06:11;;;;;;;14.30;9.13;;;2.50;79.70;;;;;;5035012;28;20044;-59
2023/01/29 11:08:58;;;;;;;12.38;8.30;;;2.60;79.90;;;;;;5030532;28;20040;-59
2023/01/29 11:11:47;;;;;;;13.10;8.95;;;2.60;79.70;;;;;;5018972;28;20033;-61
2023/01/29 11:14:21;;;;;;;11.80;8.30;;;2.60;79.50;;;;;;5035610;28;20037;-59
2023/01/29 11:16:47;;;;;;;13.38;8.95;;;2.60;79.40;;;;;;5037408;28;20444;-61
2023/01/29 11:19:14;;;;;;;13.73;8.57;;;2.70;79.40;;;;;;5037198;28;20029;-57
2023/01/29 11:21:57;;;;;;;14.40;9.55;;;2.70;79.40;;;;;;5037570;28;20519;-59
2023/01/29 11:24:23;;;;;;;14.80;9.63;;;2.70;79.00;;;;;;5037630;28;20037;-60
2023/01/29 11:26:50;;;;;;;13.40;9.27;;;2.70;78.80;;;;;;5034738;28;20033;-59
2023/01/29 11:29:34;;;;;;;15.20;10.20;;;2.70;78.90;;;;;;5029638;28;20123;-60
2023/01/29 11:32:34;;;;;;;14.63;9.57;;;2.70;78.80;;;;;;5030636;28;20037;-60
2023/01/29 11:35:18;;;;;;;13.38;8.90;;;2.70;79.20;;;;;;5017898;28;20548;-60
2023/01/29 11:37:45;;;;;;;13.68;9.13;;;2.70;78.80;;;;;;5034802;28;20702;-60
2023/01/29 11:40:39;;;;;;;14.65;9.80;;;2.80;78.80;;;;;;5031911;28;20075;-60
2023/01/29 11:43:31;;;;;;;13.88;8.95;;;2.70;77.80;;;;;;5027850;28;20037;-60
2023/01/29 11:46:11;;;;;;;14.30;9.45;;;2.70;77.90;;;;;;5034954;28;20083;-60
2023/01/29 11:48:46;;;;;;;14.60;9.18;;;2.70;78.60;;;;;;5035873;28;20486;-61
2023/01/29 11:51:22;;;;;;;15.73;10.00;;;2.70;78.80;;;;;;5037501;28;20417;-61
2023/01/29 11:54:16;;;;;;;13.93;9.50;;;2.70;78.80;;;;;;5037956;28;20044;-61
2023/01/29 11:56:44;;;;;;;13.55;9.27;;;2.70;78.80;;;;;;5034940;28;20029;-61
2023/01/29 11:59:43;;;;;;;11.88;8.40;;;2.70;79.30;;;;;;5034719;28;20037;-61
2023/01/29 12:02:33;;;;;;;14.05;9.50;;;2.80;78.90;;;;;;5026880;28;20096;-60
2023/01/29 12:05:05;;;;;;;15.95;10.40;;;2.80;78.70;;;;;;5031416;28;20061;-60
2023/01/29 12:07:31;;;;;;;13.27;9.20;;;2.90;78.60;;;;;;5025668;28;20094;-61
2023/01/29 12:09:58;;;;;;;14.48;9.50;;;2.90;78.60;;;;;;5033977;28;20059;-60
2023/01/29 12:12:40;;;;;;;14.30;9.63;;;2.90;78.50;;;;;;5028643;28;20032;-61
2023/01/29 12:15:20;;;;;;;12.52;8.55;;;2.90;78.40;;;;;;5035870;28;20436;-61
2023/01/29 12:17:54;;;;;;;14.13;8.88;;;2.90;78.40;;;;;;5036015;28;20033;-59
2023/01/29 12:20:29;;;;;;;13.07;8.73;;;2.90;78.60;;;;;;5034702;28;20061;-61
2023/01/29 12:22:57;;;;;;;14.95;10.60;;;2.90;78.70;;;;;;5023677;28;21882;-60
2023/01/29 12:25:43;;;;;;;13.70;9.70;;;2.90;78.70;;;;;;5033538;28;20512;-61
2023/01/29 12:28:33;;;;;;;13.65;9.00;;;2.90;78.30;;;;;;5025086;28;20038;-60
2023/01/29 12:31:11;;;;;;;14.43;9.77;;;2.90;78.30;;;;;;5029665;28;20122;-59
2023/01/29 12:33:53;;;;;;;14.10;9.15;;;3.00;77.90;;;;;;5032035;28;20060;-60
2023/01/29 12:36:41;;;;;;;14.98;9.52;;;2.90;77.80;;;;;;5028600;28;20180;-60
2023/01/29 12:39:11;;;;;;;13.27;9.13;;;2.90;78.10;;;;;;5030301;28;20033;-61
2023/01/29 12:41:54;;;;;;;13.90;9.23;;;2.90;78.20;;;;;;5034393;28;20029;-61
2023/01/29 12:44:29;;;;;;;16.90;10.13;;;2.90;78.00;;;;;;5027687;28;20048;-60
2023/01/29 12:46:59;;;;;;;12.82;9.23;;;2.90;78.00;;;;;;5031408;28;20032;-60
2023/01/29 12:49:29;;;;;;;12.93;8.60;;;2.90;78.10;;;;;;5029291;28;20033;-59
2023/01/29 12:51:57;;;;;;;13.88;9.15;;;2.90;77.80;;;;;;5028637;28;20179;-61
2023/01/29 12:54:48;;;;;;;13.57;9.15;;;2.90;77.90;;;;;;5028563;28;20072;-60
2023/01/29 12:57:36;;;;;;;15.25;9.20;;;2.80;77.60;;;;;;5030399;28;20041;-61
2023/01/29 13:00:12;;;;;;;13.38;9.15;;;2.90;78.00;;;;;;5035729;28;20092;-62
2023/01/29 13:03:05;;;;;;;16.10;9.75;;;2.90;78.40;;;;;;5036365;28;20592;-59
2023/01/29 13:05:45;;;;;;;15.32;9.60;;;2.90;78.30;;;;;;5032583;28;20107;-61
2023/01/29 13:08:22;;;;;;;14.18;9.57;;;2.90;78.30;;;;;;5030207;28;20041;-61
2023/01/29 13:10:51;;;;;;;13.90;9.60;;;2.90;78.30;;;;;;5025815;28;20041;-61
2023/01/29 13:13:30;;;;;;;16.17;10.25;;;2.90;78.50;;;;;;5028124;28;20045;-62
2023/01/29 13:15:58;;;;;;;15.88;10.18;;;2.90;78.30;;;;;;5035835;28;20513;-62
2023/01/29 13:18:40;;;;;;;14.95;9.63;;;2.90;78.40;;;;;;5031436;28;20037;-61
2023/01/29 13:21:12;;;;;;;19.90;9.73;;;2.90;78.10;;;;;;5032977;28;20037;-60
2023/01/29 13:23:55;;;;;;;23.25;14.73;;;2.90;78.30;;;;;;5026340;28;20041;-59
2023/01/29 13:26:21;;;;;;;16.08;11.10;;;2.90;78.00;;;;;;5026692;28;20388;-61
2023/01/29 13:28:48;;;;;;;20.60;12.02;;;2.90;78.10;;;;;;5031324;28;20036;-62
2023/01/29 13:31:28;;;;;;;17.80;10.13;;;2.90;78.10;;;;;;5031556;28;20037;-61
2023/01/29 13:34:03;;;;;;;16.17;10.57;;;2.90;78.10;;;;;;5032172;28;21248;-61
2023/01/29 13:36:30;;;;;;;13.48;9.05;;;2.90;77.90;;;;;;5026786;28;20056;-61
2023/01/29 13:39:07;;;;;;;13.13;9.23;;;2.90;78.00;;;;;;5027666;28;20562;-61
2023/01/29 13:41:40;;;;;;;15.90;10.05;;;3.00;77.90;;;;;;5027177;28;20160;-60
2023/01/29 13:44:28;;;;;;;16.27;10.25;;;2.90;78.00;;;;;;5026960;28;20483;-61
2023/01/29 13:47:05;;;;;;;16.90;10.75;;;3.00;78.10;;;;;;5027844;28;20195;-61